Time;durP1;ratioP1;P1;durP2;ratioP2;P2;SDS_P1;SDS_P2;PMS_P1;PMS_P2;Temp;Humidity;BMP_temperature;BMP_pressure;BME280_temperature;BME280_humidity;BME280_pressure;Samples;Min_cycle;Max_cycle;Signal;HPM_P1;HPM_P2
2023/06/13 00:00:37;;;;;;;0.50;0.50;;;;;;;10.42;51.82;100092.88;5090292;28;20055;-82
2023/06/13 00:03:09;;;;;;;0.40;0.40;;;;;;;10.30;52.03;100087.34;5072556;28;20439;-81
2023/06/13 00:05:36;;;;;;;0.50;0.50;;;;;;;10.24;52.23;100084.66;5090255;28;20292;-82
2023/06/13 00:08:03;;;;;;;0.50;0.50;;;;;;;10.23;52.04;100094.63;5090213;28;20051;-81
2023/06/13 00:10:31;;;;;;;0.50;0.50;;;;;;;10.20;52.04;100090.50;5090070;28;20044;-81
2023/06/13 00:12:58;;;;;;;0.50;0.50;;;;;;;10.17;52.49;100085.50;5071986;28;20047;-81
2023/06/13 00:15:26;;;;;;;0.45;0.45;;;;;;;10.16;52.53;100089.25;5090024;28;20529;-81
2023/06/13 00:17:53;;;;;;;0.50;0.50;;;;;;;10.12;52.35;100079.09;5089984;28;20048;-81
2023/06/13 00:20:21;;;;;;;0.50;0.50;;;;;;;10.11;52.61;100089.06;5089918;28;20076;-82
2023/06/13 00:22:48;;;;;;;0.50;0.50;;;;;;;10.13;52.54;100083.47;5090193;28;20138;-80
2023/06/13 00:25:16;;;;;;;0.50;0.50;;;;;;;10.14;52.56;100087.81;5089706;28;20602;-82
2023/06/13 00:27:43;;;;;;;0.50;0.50;;;;;;;10.12;52.67;100089.91;5090211;28;20044;-82
2023/06/13 00:30:10;;;;;;;0.50;0.50;;;;;;;10.07;52.58;100081.63;5090209;28;20138;-81
2023/06/13 00:32:38;;;;;;;0.50;0.50;;;;;;;10.06;52.75;100080.81;5091294;28;20056;-81
2023/06/13 00:35:08;;;;;;;0.50;0.50;;;;;;;10.02;53.13;100087.66;5089804;28;20135;-81
2023/06/13 00:37:38;;;;;;;0.50;0.50;;;;;;;9.98;53.06;100084.56;5090003;28;20105;-82
2023/06/13 00:40:07;;;;;;;0.40;0.40;;;;;;;9.96;53.35;100086.66;5090107;28;20048;-81
2023/06/13 00:42:34;;;;;;;0.50;0.50;;;;;;;9.93;53.46;100084.38;5073530;28;20117;-82
2023/06/13 00:45:24;;;;;;;0.50;0.50;;;;;;;9.91;53.42;100088.34;5075639;28;20044;-82
2023/06/13 00:47:55;;;;;;;0.50;0.50;;;;;;;9.86;53.61;100085.47;5094075;28;20076;-81
2023/06/13 00:50:30;;;;;;;0.50;0.50;;;;;;;9.85;54.03;100084.63;5093636;28;20410;-81
2023/06/13 00:52:58;;;;;;;0.50;0.50;;;;;;;9.83;53.91;100084.00;5059280;28;20062;-81
2023/06/13 00:55:27;;;;;;;0.50;0.50;;;;;;;9.81;53.79;100083.41;5042630;28;20082;-82
2023/06/13 00:57:55;;;;;;;0.50;0.50;;;;;;;9.79;54.04;100081.94;5075228;28;20514;-82
2023/06/13 01:00:26;;;;;;;0.50;0.50;;;;;;;9.74;54.17;100067.22;5075887;28;20510;-82
2023/06/13 01:03:06;;;;;;;0.50;0.50;;;;;;;9.76;54.33;100080.50;5093493;28;20048;-81
2023/06/13 01:05:38;;;;;;;0.50;0.50;;;;;;;9.73;54.19;100070.97;5075158;28;20058;-81
2023/06/13 01:08:10;;;;;;;0.50;0.50;;;;;;;9.73;54.44;100078.25;5093051;28;20530;-82
2023/06/13 01:10:40;;;;;;;0.50;0.50;;;;;;;9.73;54.44;100079.06;5093453;28;20138;-81
2023/06/13 01:13:18;;;;;;;0.50;0.50;;;;;;;9.70;54.46;100073.28;5093037;28;20056;-81
2023/06/13 01:15:53;;;;;;;0.50;0.50;;;;;;;9.73;54.55;100080.94;5075125;28;20048;-82
2023/06/13 01:18:22;;;;;;;0.60;0.60;;;;;;;9.75;54.78;100078.88;5058701;28;20071;-82
2023/06/13 01:20:56;;;;;;;0.50;0.50;;;;;;;9.73;54.76;100079.06;5093087;28;20051;-81
2023/06/13 01:23:49;;;;;;;0.55;0.55;;;;;;;9.67;54.83;100071.84;5075784;28;20062;-81
2023/06/13 01:26:23;;;;;;;0.60;0.60;;;;;;;9.69;54.93;100075.13;5091739;28;20059;-81
2023/06/13 01:28:52;;;;;;;0.50;0.50;;;;;;;9.68;55.10;100075.34;5093031;28;20048;-81
2023/06/13 01:31:23;;;;;;;0.50;0.50;;;;;;;9.61;55.05;100063.78;5092082;28;20048;-83
2023/06/13 01:33:51;;;;;;;0.60;0.60;;;;;;;9.63;55.03;100064.38;5092751;28;20101;-82
2023/06/13 01:36:19;;;;;;;0.50;0.50;;;;;;;9.72;55.02;100076.56;5084368;28;20195;-81
2023/06/13 01:38:47;;;;;;;0.50;0.50;;;;;;;9.68;55.02;100057.31;5074525;28;20043;-80
2023/06/13 01:41:14;;;;;;;0.50;0.50;;;;;;;9.72;54.86;100079.28;5092392;28;20050;-81
2023/06/13 01:43:41;;;;;;;0.50;0.50;;;;;;;9.73;54.92;100076.38;5074164;28;20052;-82
2023/06/13 01:46:23;;;;;;;0.50;0.50;;;;;;;9.74;55.13;100075.31;5092022;28;20117;-82
2023/06/13 01:49:30;;;;;;;0.50;0.50;;;;;;;9.77;55.05;100071.38;5058443;28;20044;-82
2023/06/13 01:52:21;;;;;;;0.50;0.50;;;;;;;9.75;55.08;100070.78;5092147;28;20097;-82
2023/06/13 01:54:55;;;;;;;0.60;0.60;;;;;;;9.78;54.93;100067.66;5037589;28;20086;-81
2023/06/13 01:57:28;;;;;;;0.50;0.50;;;;;;;9.85;55.07;100078.38;5037896;28;20045;-82
2023/06/13 01:59:56;;;;;;;0.50;0.50;;;;;;;9.83;54.90;100070.53;5037917;28;20048;-82
2023/06/13 02:02:24;;;;;;;0.50;0.50;;;;;;;9.92;55.17;100074.63;5053995;28;20040;-82
2023/06/13 02:04:51;;;;;;;0.50;0.50;;;;;;;9.93;55.10;100073.59;5037782;28;20544;-82
2023/06/13 02:07:19;;;;;;;0.50;0.50;;;;;;;9.98;55.03;100079.19;5067310;28;20063;-83
2023/06/13 02:09:46;;;;;;;0.50;0.50;;;;;;;10.03;54.81;100083.94;5092143;28;20235;-82
2023/06/13 02:12:17;;;;;;;0.50;0.50;;;;;;;10.07;54.74;100084.31;5091903;28;20055;-82
2023/06/13 02:14:44;;;;;;;0.50;0.50;;;;;;;10.14;54.84;100079.72;5074361;28;20044;-79
2023/06/13 02:17:12;;;;;;;0.40;0.40;;;;;;;10.18;54.65;100079.09;5077946;28;20044;-82
2023/06/13 02:19:39;;;;;;;0.50;0.50;;;;;;;10.23;54.70;100083.84;5092771;28;20048;-83
2023/06/13 02:22:06;;;;;;;0.50;0.50;;;;;;;10.28;54.80;100080.50;5090377;28;20083;-81
2023/06/13 02:24:33;;;;;;;0.50;0.50;;;;;;;10.32;54.58;100082.56;5091830;28;20517;-81
2023/06/13 02:27:01;;;;;;;0.50;0.50;;;;;;;10.35;54.47;100082.13;5090641;28;20047;-82
2023/06/13 02:29:31;;;;;;;0.50;0.50;;;;;;;10.40;54.42;100090.38;5091284;28;20044;-81
2023/06/13 02:31:58;;;;;;;0.50;0.50;;;;;;;10.44;54.45;100079.19;5091638;28;20139;-81
2023/06/13 02:34:27;;;;;;;0.50;0.50;;;;;;;10.46;54.51;100080.63;5091618;28;20210;-81
2023/06/13 02:36:55;;;;;;;0.50;0.50;;;;;;;10.53;54.69;100077.84;5077989;28;20055;-82
2023/06/13 02:39:22;;;;;;;0.50;0.50;;;;;;;10.55;54.52;100076.59;5091636;28;20087;-81
2023/06/13 02:41:49;;;;;;;0.50;0.50;;;;;;;10.65;54.53;100083.38;5091625;28;20063;-81
2023/06/13 02:44:16;;;;;;;0.50;0.50;;;;;;;10.70;54.29;100081.69;5091557;28;20052;-82
2023/06/13 02:46:43;;;;;;;0.50;0.50;;;;;;;10.76;54.22;100078.13;5073221;28;20106;-82
2023/06/13 02:49:11;;;;;;;0.50;0.50;;;;;;;10.84;54.35;100087.81;5089926;28;20047;-81
2023/06/13 02:51:38;;;;;;;0.50;0.50;;;;;;;10.89;54.46;100079.91;5091490;28;20135;-81
2023/06/13 02:54:07;;;;;;;0.60;0.60;;;;;;;10.95;54.30;100080.88;5073421;28;20447;-81
2023/06/13 02:56:36;;;;;;;0.60;0.60;;;;;;;11.01;53.77;100088.94;5073527;28;20044;-81
2023/06/13 02:59:04;;;;;;;0.50;0.50;;;;;;;11.04;53.70;100083.09;5091405;28;20058;-81
2023/06/13 03:01:31;;;;;;;0.52;0.52;;;;;;;11.12;53.74;100087.38;5073522;28;20055;-81
2023/06/13 03:04:02;;;;;;;0.60;0.60;;;;;;;11.18;53.52;100088.38;5073008;28;20075;-80
2023/06/13 03:06:30;;;;;;;0.50;0.50;;;;;;;11.25;53.74;100084.56;5073339;28;20076;-81
2023/06/13 03:08:59;;;;;;;0.60;0.60;;;;;;;11.35;53.16;100099.44;5073427;28;20537;-81
2023/06/13 03:11:32;;;;;;;0.60;0.60;;;;;;;11.40;52.85;100092.31;5073233;28;20074;-81
2023/06/13 03:13:59;;;;;;;0.50;0.50;;;;;;;11.47;52.85;100089.53;5081267;28;20143;-81
2023/06/13 03:16:28;;;;;;;0.60;0.60;;;;;;;11.52;53.22;100094.25;5091330;28;20504;-82
2023/06/13 03:18:57;;;;;;;0.60;0.60;;;;;;;11.59;52.64;100081.50;5089649;28;20048;-82
2023/06/13 03:21:30;;;;;;;0.60;0.60;;;;;;;11.66;52.41;100093.06;5074000;28;20079;-82
2023/06/13 03:23:57;;;;;;;0.50;0.50;;;;;;;11.74;52.28;100092.75;5090275;28;20130;-81
2023/06/13 03:26:28;;;;;;;0.50;0.50;;;;;;;11.82;52.28;100097.03;5091177;28;20051;-82
2023/06/13 03:28:58;;;;;;;0.50;0.50;;;;;;;11.92;51.61;100094.66;5090443;28;20043;-82
2023/06/13 03:31:25;;;;;;;0.52;0.52;;;;;;;11.97;51.30;100094.81;5089750;28;20044;-81
2023/06/13 03:33:54;;;;;;;0.50;0.50;;;;;;;12.00;51.17;100090.81;5091456;28;20081;-81
2023/06/13 03:36:22;;;;;;;0.50;0.50;;;;;;;12.11;51.04;100098.19;5078406;28;20060;-82
2023/06/13 03:38:50;;;;;;;0.50;0.50;;;;;;;12.25;50.60;100096.13;5070764;28;20479;-82
2023/06/13 03:41:18;;;;;;;0.50;0.50;;;;;;;12.24;50.44;100087.19;5069140;28;20048;-82
2023/06/13 03:43:47;;;;;;;0.43;0.43;;;;;;;12.35;50.19;100093.69;5070566;28;20061;-82
2023/06/13 03:46:14;;;;;;;0.50;0.50;;;;;;;12.43;50.33;100101.50;5052502;28;20082;-82
2023/06/13 03:48:42;;;;;;;0.50;0.50;;;;;;;12.54;49.79;100098.00;5088487;28;20510;-81
2023/06/13 03:51:10;;;;;;;0.50;0.50;;;;;;;12.64;49.42;100096.63;5073104;28;20059;-81
2023/06/13 03:53:39;;;;;;;0.50;0.50;;;;;;;12.72;49.29;100099.00;5074781;28;20066;-82
2023/06/13 03:56:06;;;;;;;0.50;0.50;;;;;;;12.78;49.00;100090.75;5092823;28;20578;-83
2023/06/13 03:58:35;;;;;;;0.60;0.60;;;;;;;12.94;48.65;100096.59;5091327;28;20087;-81
2023/06/13 04:01:06;;;;;;;0.50;0.50;;;;;;;12.99;48.44;100092.09;5072459;28;20091;-82
2023/06/13 04:03:39;;;;;;;0.50;0.50;;;;;;;13.10;48.49;100095.06;5039896;28;20072;-81
2023/06/13 04:06:09;;;;;;;0.50;0.50;;;;;;;13.23;48.46;100095.66;5090837;28;20506;-82
2023/06/13 04:08:36;;;;;;;0.50;0.50;;;;;;;13.33;48.41;100103.22;5072009;28;20051;-82
2023/06/13 04:11:05;;;;;;;0.45;0.45;;;;;;;13.40;47.96;100098.50;5086741;28;20064;-82
2023/06/13 04:13:33;;;;;;;0.50;0.50;;;;;;;13.49;47.73;100100.84;5089236;28;20097;-82
2023/06/13 04:16:00;;;;;;;0.45;0.45;;;;;;;13.59;47.39;100101.09;5074319;28;20046;-83
2023/06/13 04:18:28;;;;;;;0.50;0.50;;;;;;;13.71;46.91;100104.63;5093065;28;20147;-82
2023/06/13 04:20:57;;;;;;;0.50;0.50;;;;;;;13.79;45.67;100090.66;5092906;28;20143;-81
2023/06/13 04:23:26;;;;;;;0.50;0.50;;;;;;;13.82;45.17;100095.66;5081511;28;20048;-81
2023/06/13 04:25:57;;;;;;;0.40;0.40;;;;;;;13.91;44.89;100095.25;5064364;28;20082;-80
2023/06/13 04:28:24;;;;;;;0.50;0.50;;;;;;;14.01;44.78;100100.91;5074542;28;20452;-82
2023/06/13 04:30:51;;;;;;;0.50;0.50;;;;;;;14.01;44.07;100079.19;5055799;28;20518;-84
2023/06/13 04:33:19;;;;;;;0.50;0.50;;;;;;;14.18;44.20;100096.38;5038545;28;20048;-82
2023/06/13 04:35:48;;;;;;;0.40;0.40;;;;;;;14.22;43.83;100085.84;5086137;28;20075;-82
2023/06/13 04:38:18;;;;;;;0.40;0.40;;;;;;;14.32;44.05;100084.13;5075651;28;20067;-82
2023/06/13 04:40:45;;;;;;;0.40;0.40;;;;;;;14.36;43.77;100086.38;5077929;28;20427;-83
2023/06/13 04:43:14;;;;;;;0.40;0.40;;;;;;;14.34;43.73;100077.66;5083066;28;20101;-81
2023/06/13 04:45:44;;;;;;;0.40;0.40;;;;;;;14.45;43.48;100084.91;5074063;28;20761;-81
2023/06/13 04:48:14;;;;;;;0.50;0.50;;;;;;;14.49;43.62;100080.66;5082618;28;20114;-82
2023/06/13 04:50:41;;;;;;;0.50;0.50;;;;;;;14.54;43.11;100071.81;5087679;28;20415;-82
2023/06/13 04:53:11;;;;;;;0.50;0.50;;;;;;;14.58;42.81;100084.63;5063451;28;20151;-81
2023/06/13 04:55:42;;;;;;;0.40;0.40;;;;;;;14.70;43.13;100071.81;5060108;28;20063;-81
2023/06/13 04:58:09;;;;;;;0.50;0.50;;;;;;;14.82;43.12;100066.31;5056926;28;20051;-83
2023/06/13 05:00:36;;;;;;;0.50;0.50;;;;;;;14.91;42.22;100072.13;5057173;28;20538;-81
2023/06/13 05:03:06;;;;;;;0.40;0.40;;;;;;;14.93;42.07;100075.44;5077012;28;20095;-83
2023/06/13 05:05:33;;;;;;;0.50;0.50;;;;;;;14.99;42.11;100070.91;5079268;28;20502;-83
2023/06/13 05:08:01;;;;;;;0.40;0.40;;;;;;;15.04;41.60;100074.53;5060983;28;20055;-82
2023/06/13 05:10:28;;;;;;;0.40;0.40;;;;;;;15.11;41.82;100069.75;5072943;28;20055;-83
2023/06/13 05:12:58;;;;;;;0.38;0.38;;;;;;;15.18;41.84;100062.25;5082058;28;20094;-82
2023/06/13 05:15:26;;;;;;;0.50;0.50;;;;;;;15.25;41.73;100064.78;5071527;28;20439;-82
2023/06/13 05:17:56;;;;;;;0.40;0.40;;;;;;;15.37;41.04;100062.81;5077849;28;20048;-82
2023/06/13 05:20:27;;;;;;;0.40;0.40;;;;;;;15.40;40.61;100058.75;5087413;28;20166;-81
2023/06/13 05:22:56;;;;;;;0.40;0.40;;;;;;;15.45;39.75;100060.72;5075230;28;20052;-82
2023/06/13 05:25:24;;;;;;;0.40;0.40;;;;;;;15.46;39.91;100062.38;5087862;28;20040;-82
2023/06/13 05:27:55;;;;;;;0.40;0.40;;;;;;;15.54;39.58;100070.09;5076936;28;20071;-81
2023/06/13 05:30:22;;;;;;;0.40;0.40;;;;;;;15.60;39.43;100059.03;5079960;28;20140;-85
2023/06/13 05:32:50;;;;;;;0.40;0.40;;;;;;;15.76;39.11;100062.81;5084631;28;20051;-83
2023/06/13 05:35:19;;;;;;;0.40;0.40;;;;;;;15.89;39.23;100061.59;5082664;28;20051;-82
2023/06/13 05:37:48;;;;;;;0.40;0.40;;;;;;;16.00;39.41;100063.38;5055127;28;20044;-82
2023/06/13 05:40:16;;;;;;;0.40;0.40;;;;;;;15.98;38.52;100057.34;5082772;28;20675;-83
2023/06/13 05:42:46;;;;;;;0.40;0.40;;;;;;;15.99;38.18;100056.28;5092668;28;20075;-84
2023/06/13 05:45:14;;;;;;;0.40;0.40;;;;;;;15.93;38.17;100040.16;5086711;28;20077;-83
2023/06/13 05:47:41;;;;;;;0.40;0.40;;;;;;;16.07;38.16;100062.34;5069748;28;20040;-84
2023/06/13 05:50:13;;;;;;;0.43;0.43;;;;;;;16.17;37.68;100063.28;5071285;28;20048;-83
2023/06/13 05:52:43;;;;;;;0.40;0.40;;;;;;;16.19;37.47;100050.22;5071364;28;20048;-84
2023/06/13 05:55:13;;;;;;;0.40;0.40;;;;;;;16.29;37.23;100052.25;5076974;28;20054;-84
2023/06/13 05:57:45;;;;;;;0.40;0.40;;;;;;;16.24;37.33;100036.66;5058151;28;20048;-84
2023/06/13 06:00:14;;;;;;;0.40;0.40;;;;;;;16.19;36.95;100027.63;5070797;28;20461;-83
2023/06/13 06:02:44;;;;;;;0.40;0.40;;;;;;;16.40;37.11;100040.34;5054325;28;20044;-83
2023/06/13 06:05:13;;;;;;;0.40;0.40;;;;;;;16.44;37.00;100030.59;5074626;28;20143;-82
2023/06/13 06:07:47;;;;;;;0.40;0.40;;;;;;;16.46;36.67;100030.34;5075271;28;20056;-84
2023/06/13 06:10:14;;;;;;;0.40;0.40;;;;;;;16.63;36.83;100024.75;5076187;28;20059;-83
2023/06/13 06:12:42;;;;;;;0.40;0.40;;;;;;;16.83;36.83;100027.69;5083417;28;20059;-82
2023/06/13 06:15:10;;;;;;;0.40;0.40;;;;;;;16.94;36.33;100034.06;5068328;28;20047;-83
2023/06/13 06:17:37;;;;;;;0.40;0.40;;;;;;;16.99;36.63;100035.97;5083275;28;20138;-83
2023/06/13 06:20:06;;;;;;;0.40;0.40;;;;;;;17.15;35.93;100035.00;5073871;28;20135;-83
2023/06/13 06:22:35;;;;;;;0.40;0.40;;;;;;;17.17;35.26;100038.31;5091870;28;20070;-83
2023/06/13 06:25:03;;;;;;;0.40;0.40;;;;;;;17.23;35.31;100031.78;5088396;28;20530;-82
2023/06/13 06:27:30;;;;;;;0.38;0.38;;;;;;;17.32;35.29;100015.75;5065436;28;20044;-81
2023/06/13 06:29:57;;;;;;;0.40;0.40;;;;;;;17.30;35.47;100020.66;5088855;28;20075;-82
2023/06/13 06:32:25;;;;;;;0.40;0.40;;;;;;;17.39;34.86;100019.03;5081253;28;20044;-82
2023/06/13 06:34:54;;;;;;;0.40;0.40;;;;;;;17.30;35.17;100020.66;5073160;28;20083;-83
2023/06/13 06:37:24;;;;;;;0.40;0.40;;;;;;;17.41;34.91;100005.97;5083425;28;20048;-83
2023/06/13 06:39:52;;;;;;;0.40;0.40;;;;;;;17.43;34.81;100006.53;5081661;28;20040;-81
2023/06/13 06:42:20;;;;;;;0.40;0.40;;;;;;;17.50;34.67;100014.47;5079999;28;20253;-81
2023/06/13 06:45:05;;;;;;;0.40;0.40;;;;;;;17.39;34.39;100015.50;5068036;28;20101;-83
2023/06/13 06:47:32;;;;;;;0.40;0.40;;;;;;;17.45;34.58;100011.72;5073045;28;20055;-81
2023/06/13 06:49:59;;;;;;;0.30;0.30;;;;;;;17.60;34.83;100016.41;5073059;28;20579;-81
2023/06/13 06:52:30;;;;;;;0.40;0.40;;;;;;;17.73;34.47;100019.47;5090622;28;20612;-82
2023/06/13 06:54:57;;;;;;;0.40;0.40;;;;;;;17.73;34.65;100011.28;5090905;28;20044;-82
2023/06/13 06:57:25;;;;;;;0.40;0.40;;;;;;;17.68;34.56;100008.53;5090385;28;20540;-83
2023/06/13 06:59:55;;;;;;;0.40;0.40;;;;;;;17.87;34.70;100002.63;5091007;28;20051;-82
2023/06/13 07:02:22;;;;;;;0.40;0.40;;;;;;;17.86;34.27;100004.53;5089319;28;20052;-81
2023/06/13 07:05:00;;;;;;;0.40;0.40;;;;;;;18.05;34.33;100004.03;5090937;28;20051;-82
2023/06/13 07:07:35;;;;;;;0.40;0.40;;;;;;;18.10;34.07;100007.59;5058207;28;20048;-81
2023/06/13 07:10:04;;;;;;;0.40;0.40;;;;;;;18.12;33.85;100012.81;5052827;28;20109;-81
2023/06/13 07:12:40;;;;;;;0.40;0.40;;;;;;;18.17;34.17;100008.16;5052414;28;20052;-81
2023/06/13 07:15:08;;;;;;;;;;;;;;;18.26;33.94;100000.28;5052716;28;20048;-83
2023/06/13 07:17:36;;;;;;;0.40;0.40;;;;;;;18.06;33.51;99987.38;5052238;28;19969;-82
2023/06/13 07:20:08;;;;;;;0.40;0.40;;;;;;;18.08;33.43;99998.88;5052416;28;20049;-82
2023/06/13 07:22:41;;;;;;;0.40;0.40;;;;;;;18.18;33.32;100009.00;5037250;28;20052;-82
2023/06/13 07:25:08;;;;;;;0.40;0.40;;;;;;;18.29;33.40;99998.91;5037458;28;20514;-81
2023/06/13 07:27:36;;;;;;;0.40;0.40;;;;;;;18.18;32.79;99987.16;5070577;28;20074;-82
2023/06/13 07:30:05;;;;;;;0.40;0.40;;;;;;;18.16;33.38;99992.88;5070333;28;20534;-81
2023/06/13 07:32:35;;;;;;;0.40;0.40;;;;;;;18.26;32.75;100000.28;5078520;28;20048;-82
2023/06/13 07:35:04;;;;;;;0.40;0.40;;;;;;;18.23;32.53;99973.50;5072425;28;20044;-82
2023/06/13 07:37:33;;;;;;;0.40;0.40;;;;;;;18.28;32.99;99991.78;5052677;28;20072;-81
2023/06/13 07:40:03;;;;;;;0.30;0.30;;;;;;;18.43;32.76;99983.59;5070211;28;20051;-83
2023/06/13 07:42:30;;;;;;;0.40;0.40;;;;;;;18.66;32.50;99981.41;5068246;28;20135;-83
2023/06/13 07:45:01;;;;;;;0.38;0.38;;;;;;;18.67;32.57;99992.09;5068951;28;20072;-82
2023/06/13 07:47:30;;;;;;;0.40;0.40;;;;;;;18.97;31.91;99983.06;5035660;28;20155;-82
2023/06/13 07:50:00;;;;;;;0.50;0.50;;;;;;;19.09;31.69;99965.53;5069983;28;20177;-82
2023/06/13 07:52:30;;;;;;;0.50;0.50;;;;;;;19.31;31.09;99973.41;5070006;28;20482;-82
2023/06/13 07:54:57;;;;;;;0.40;0.40;;;;;;;19.36;31.06;99976.94;5078658;28;20047;-82
2023/06/13 07:57:25;;;;;;;0.50;0.50;;;;;;;19.66;30.82;99973.25;5089864;28;20054;-82
2023/06/13 08:00:14;;;;;;;0.50;0.50;;;;;;;19.90;30.59;99973.44;5089916;28;20544;-82
2023/06/13 08:02:46;;;;;;;0.50;0.50;;;;;;;20.01;30.44;99974.19;5088986;28;20146;-82
2023/06/13 08:05:15;;;;;;;0.50;0.50;;;;;;;20.00;30.24;99950.63;5072117;28;20055;-82
2023/06/13 08:07:43;;;;;;;0.45;0.45;;;;;;;20.28;29.87;99967.41;5058616;28;20052;-81
2023/06/13 08:10:13;;;;;;;0.40;0.40;;;;;;;20.53;29.80;99969.16;5089863;28;20044;-81
2023/06/13 08:12:48;;;;;;;0.50;0.50;;;;;;;20.60;29.23;99960.63;5056281;28;20489;-82
2023/06/13 08:15:15;;;;;;;0.50;0.50;;;;;;;20.37;29.07;99943.78;5072062;28;20147;-82
2023/06/13 08:17:59;;;;;;;0.50;0.50;;;;;;;20.67;29.47;99953.72;5090001;28;20221;-82
2023/06/13 08:20:27;;;;;;;0.50;0.50;;;;;;;20.73;28.95;99949.78;5090087;28;20048;-82
2023/06/13 08:22:59;;;;;;;0.50;0.50;;;;;;;20.73;28.83;99936.06;5090427;28;20135;-83
2023/06/13 08:25:26;;;;;;;0.50;0.50;;;;;;;20.82;28.89;99936.28;5090780;28;20052;-82
2023/06/13 08:28:11;;;;;;;0.50;0.50;;;;;;;20.85;29.26;99935.69;5089654;28;20062;-82
2023/06/13 08:30:38;;;;;;;0.52;0.52;;;;;;;21.28;28.65;99946.75;5072118;28;20142;-82
2023/06/13 08:33:12;;;;;;;0.50;0.50;;;;;;;21.57;27.66;99937.63;5089610;28;20051;-82
2023/06/13 08:35:43;;;;;;;0.50;0.50;;;;;;;21.69;27.99;99940.75;5066076;28;20052;-81
2023/06/13 08:38:13;;;;;;;0.50;0.50;;;;;;;21.95;27.79;99934.91;5070468;28;20139;-82
2023/06/13 08:40:41;;;;;;;0.50;0.50;;;;;;;22.00;27.08;99938.41;5069839;28;20052;-83
2023/06/13 08:43:10;;;;;;;0.50;0.50;;;;;;;22.24;26.86;99932.84;5052590;28;20048;-82
2023/06/13 08:45:38;;;;;;;0.50;0.50;;;;;;;22.33;26.50;99930.22;5069775;28;20130;-83
2023/06/13 08:48:07;;;;;;;0.50;0.50;;;;;;;22.53;27.06;99914.50;5052036;28;20040;-83
2023/06/13 08:50:38;;;;;;;0.50;0.50;;;;;;;23.06;26.35;99922.34;5055376;28;20388;-82
2023/06/13 08:53:06;;;;;;;0.50;0.50;;;;;;;23.03;26.39;99928.47;5088587;28;20044;-83
2023/06/13 08:55:40;;;;;;;0.50;0.50;;;;;;;22.78;26.96;99905.78;5089953;28;20043;-82
2023/06/13 08:58:29;;;;;;;0.50;0.50;;;;;;;22.73;26.91;99892.09;5089394;28;20056;-83
2023/06/13 09:00:57;;;;;;;0.50;0.50;;;;;;;23.09;26.50;99910.72;5088538;28;20058;-82
2023/06/13 09:03:25;;;;;;;0.50;0.50;;;;;;;23.55;26.42;99904.25;5056492;28;20602;-82
2023/06/13 09:05:56;;;;;;;0.50;0.50;;;;;;;23.91;25.66;99892.47;5073921;28;20155;-82
2023/06/13 09:08:24;;;;;;;0.60;0.60;;;;;;;24.28;25.64;99890.44;5023230;28;20048;-82
2023/06/13 09:11:12;;;;;;;0.60;0.60;;;;;;;24.52;24.85;99887.38;5058485;28;20052;-82
2023/06/13 09:13:44;;;;;;;0.55;0.55;;;;;;;24.29;25.38;99892.91;5054573;28;20058;-82
2023/06/13 09:16:11;;;;;;;0.50;0.50;;;;;;;24.35;24.96;99888.06;5038722;28;20044;-81
2023/06/13 09:18:42;;;;;;;0.50;0.50;;;;;;;24.59;25.16;99888.56;5071521;28;20072;-81
2023/06/13 09:21:12;;;;;;;0.52;0.52;;;;;;;24.78;24.71;99855.19;5038568;28;20068;-82
2023/06/13 09:23:48;;;;;;;0.60;0.60;;;;;;;24.92;24.56;99877.19;5075811;28;20072;-82
2023/06/13 09:26:18;;;;;;;0.60;0.60;;;;;;;24.81;24.20;99859.25;5090468;28;20075;-82
2023/06/13 09:28:47;;;;;;;0.50;0.50;;;;;;;25.10;24.32;99864.25;5092869;28;20418;-82
2023/06/13 09:31:14;;;;;;;0.50;0.50;;;;;;;25.37;23.65;99873.41;5074567;28;20044;-82
2023/06/13 09:33:45;;;;;;;0.50;0.50;;;;;;;25.45;23.58;99873.44;5092488;28;20051;-82
2023/06/13 09:36:13;;;;;;;0.50;0.50;;;;;;;25.73;23.77;99859.34;5082373;28;20049;-81
2023/06/13 09:38:41;;;;;;;0.52;0.52;;;;;;;25.79;23.81;99858.03;5071618;28;20147;-81
2023/06/13 09:41:31;;;;;;;0.50;0.50;;;;;;;26.09;23.60;99859.00;5072066;28;20823;-81
2023/06/13 09:44:07;;;;;;;0.55;0.55;;;;;;;26.37;23.04;99842.03;5072583;28;20052;-82
2023/06/13 09:46:35;;;;;;;0.50;0.50;;;;;;;26.54;22.17;99824.59;5073713;28;20139;-81
2023/06/13 09:49:03;;;;;;;0.50;0.50;;;;;;;26.89;22.42;99844.63;5092652;28;20131;-82
2023/06/13 09:51:32;;;;;;;0.50;0.50;;;;;;;27.31;21.99;99841.97;5092173;28;20138;-81
2023/06/13 09:54:02;;;;;;;0.50;0.50;;;;;;;27.29;22.23;99843.44;5092158;28;20083;-81
2023/06/13 09:56:29;;;;;;;0.50;0.50;;;;;;;27.49;22.45;99850.97;5090868;28;20059;-82
2023/06/13 09:58:57;;;;;;;0.45;0.45;;;;;;;27.85;21.54;99839.31;5092199;28;20056;-81
2023/06/13 10:01:25;;;;;;;0.50;0.50;;;;;;;27.72;21.61;99825.66;5092152;28;20052;-81
2023/06/13 10:03:53;;;;;;;0.50;0.50;;;;;;;27.78;21.84;99802.16;5092482;28;20055;-82
2023/06/13 10:06:22;;;;;;;0.50;0.50;;;;;;;28.17;21.35;99816.63;5082867;28;20048;-81
2023/06/13 10:08:50;;;;;;;0.50;0.50;;;;;;;28.24;20.94;99822.44;5054015;28;20163;-81
2023/06/13 10:11:23;;;;;;;0.50;0.50;;;;;;;28.53;20.78;99822.25;5071430;28;20152;-82
2023/06/13 10:14:15;;;;;;;0.40;0.40;;;;;;;28.80;20.33;99839.41;5071278;28;20060;-82
2023/06/13 10:16:46;;;;;;;;;;;;;;;28.93;20.21;99832.69;5055118;28;20058;-83
2023/06/13 10:19:33;;;;;;;0.50;0.50;;;;;;;28.81;20.27;99824.38;5071520;28;19931;-81
2023/06/13 10:22:01;;;;;;;0.50;0.50;;;;;;;28.95;20.31;99816.50;5049610;28;20067;-83
2023/06/13 10:24:29;;;;;;;0.50;0.50;;;;;;;28.84;20.29;99798.69;5071515;28;20476;-82
2023/06/13 10:26:58;;;;;;;0.50;0.50;;;;;;;28.58;20.00;99823.19;5071740;28;20048;-82
2023/06/13 10:29:31;;;;;;;0.50;0.50;;;;;;;28.72;20.21;99815.34;5053359;28;20076;-82
2023/06/13 10:32:43;;;;;;;0.40;0.40;;;;;;;28.91;19.79;99810.00;5053427;28;20411;-82
2023/06/13 10:35:32;;;;;;;0.50;0.50;;;;;;;29.36;19.05;99811.03;5072175;28;20057;-81
2023/06/13 10:38:21;;;;;;;0.50;0.50;;;;;;;29.56;18.86;99803.69;5091318;28;20812;-82
2023/06/13 10:41:13;;;;;;;0.50;0.50;;;;;;;30.17;19.02;99797.84;5073800;28;20418;-82
2023/06/13 10:43:44;;;;;;;0.50;0.50;;;;;;;30.38;19.11;99794.03;5091216;28;20059;-82
2023/06/13 10:46:12;;;;;;;0.40;0.40;;;;;;;30.77;18.35;99794.22;5090867;28;20052;-82
2023/06/13 10:48:47;;;;;;;0.40;0.40;;;;;;;31.21;18.16;99774.53;5091331;28;20551;-83
2023/06/13 10:51:23;;;;;;;0.50;0.50;;;;;;;31.06;17.87;99773.41;5073080;28;20444;-82
2023/06/13 10:54:02;;;;;;;0.40;0.40;;;;;;;31.13;18.27;99784.72;5090028;28;20062;-82
2023/06/13 10:56:31;;;;;;;0.50;0.50;;;;;;;31.06;18.12;99768.63;5090943;28;20044;-82
2023/06/13 10:59:06;;;;;;;0.50;0.50;;;;;;;30.79;17.92;99747.28;5089822;28;20054;-82
2023/06/13 11:01:35;;;;;;;0.45;0.45;;;;;;;31.03;18.03;99758.22;5090741;28;20040;-83
2023/06/13 11:04:11;;;;;;;0.40;0.40;;;;;;;31.38;17.84;99760.19;5089655;28;20407;-82
2023/06/13 11:06:44;;;;;;;0.40;0.40;;;;;;;31.46;17.51;99759.16;5082821;28;20056;-82
2023/06/13 11:09:16;;;;;;;0.40;0.40;;;;;;;31.12;17.88;99755.25;5070444;28;20101;-83
2023/06/13 11:11:48;;;;;;;;;;;;;;;31.16;17.92;99749.75;5053291;28;20080;-83
2023/06/13 11:14:28;;;;;;;0.40;0.40;;;;;;;31.29;17.60;99749.22;5070180;28;19924;-82
2023/06/13 11:16:55;;;;;;;0.40;0.40;;;;;;;31.40;18.07;99757.03;5073379;28;20443;-82
2023/06/13 11:19:30;;;;;;;0.40;0.40;;;;;;;31.60;17.83;99749.47;5056400;28;20120;-82
2023/06/13 11:21:59;;;;;;;0.40;0.40;;;;;;;31.60;17.67;99744.72;5074237;28;20052;-83
2023/06/13 11:24:27;;;;;;;0.40;0.40;;;;;;;31.52;17.99;99729.81;5090508;28;20133;-82
2023/06/13 11:27:27;;;;;;;0.50;0.50;;;;;;;32.19;17.66;99739.84;5090861;28;20056;-82
2023/06/13 11:29:56;;;;;;;0.40;0.40;;;;;;;32.52;17.36;99728.06;5073241;28;20502;-82
2023/06/13 11:32:23;;;;;;;0.40;0.40;;;;;;;32.65;17.15;99695.13;5091460;28;20052;-81
2023/06/13 11:34:55;;;;;;;0.40;0.40;;;;;;;32.53;17.26;99729.66;5073484;28;20135;-80
2023/06/13 11:37:31;;;;;;;0.40;0.40;;;;;;;31.80;17.36;99728.72;5073373;28;20048;-82
2023/06/13 11:39:59;;;;;;;0.40;0.40;;;;;;;31.71;17.29;99714.22;5047648;28;20097;-81
2023/06/13 11:42:45;;;;;;;0.50;0.50;;;;;;;31.38;17.88;99712.81;5081877;28;20056;-81
2023/06/13 11:45:14;;;;;;;0.40;0.40;;;;;;;31.59;17.39;99714.38;5087918;28;20048;-82